sensor_id;sensor_type;location;lat;lon;timestamp;P1;durP1;ratioP1;P2;durP2;ratioP2
13834;SDS011;6988;52.614;13.500;2022-11-12T04:09:14;9.07;;;4.57;;
13834;SDS011;6988;52.614;13.500;2022-11-12T04:27:32;6.60;;;4.67;;
13834;SDS011;6988;52.614;13.500;2022-11-12T06:17:47;8.23;;;4.77;;
13834;SDS011;6988;52.614;13.500;2022-11-12T08:01:39;8.20;;;6.33;;
13834;SDS011;6988;52.614;13.500;2022-11-12T09:18:11;14.00;;;9.73;;
13834;SDS011;6988;52.614;13.500;2022-11-12T09:23:23;17.30;;;10.77;;
13834;SDS011;6988;52.614;13.500;2022-11-12T09:28:34;17.63;;;11.23;;
13834;SDS011;6988;52.614;13.500;2022-11-12T09:33:46;16.63;;;10.73;;
13834;SDS011;6988;52.614;13.500;2022-11-12T09:38:57;21.27;;;11.73;;
13834;SDS011;6988;52.614;13.500;2022-11-12T09:44:08;18.07;;;12.37;;
13834;SDS011;6988;52.614;13.500;2022-11-12T09:49:24;17.57;;;12.23;;
13834;SDS011;6988;52.614;13.500;2022-11-12T09:54:39;19.03;;;11.73;;
13834;SDS011;6988;52.614;13.500;2022-11-12T09:59:52;19.00;;;11.50;;
13834;SDS011;6988;52.614;13.500;2022-11-12T10:05:08;19.67;;;11.90;;
13834;SDS011;6988;52.614;13.500;2022-11-12T10:10:34;19.37;;;12.47;;
13834;SDS011;6988;52.614;13.500;2022-11-12T10:15:58;21.17;;;12.33;;
13834;SDS011;6988;52.614;13.500;2022-11-12T10:21:44;19.97;;;13.00;;
13834;SDS011;6988;52.614;13.500;2022-11-12T10:27:09;19.43;;;12.83;;
13834;SDS011;6988;52.614;13.500;2022-11-12T10:32:24;17.40;;;12.20;;
13834;SDS011;6988;52.614;13.500;2022-11-12T10:37:38;20.70;;;13.20;;
13834;SDS011;6988;52.614;13.500;2022-11-12T10:42:58;17.87;;;10.77;;
13834;SDS011;6988;52.614;13.500;2022-11-12T10:48:21;19.80;;;10.20;;
13834;SDS011;6988;52.614;13.500;2022-11-12T10:53:41;19.97;;;10.53;;
13834;SDS011;6988;52.614;13.500;2022-11-12T10:59:13;17.40;;;10.83;;
13834;SDS011;6988;52.614;13.500;2022-11-12T11:04:29;18.37;;;11.10;;
13834;SDS011;6988;52.614;13.500;2022-11-12T11:09:51;18.47;;;10.37;;
13834;SDS011;6988;52.614;13.500;2022-11-12T11:15:06;15.73;;;9.93;;
13834;SDS011;6988;52.614;13.500;2022-11-12T11:20:29;14.23;;;8.73;;
13834;SDS011;6988;52.614;13.500;2022-11-12T11:25:53;14.67;;;9.03;;
13834;SDS011;6988;52.614;13.500;2022-11-12T11:31:14;17.20;;;8.57;;
13834;SDS011;6988;52.614;13.500;2022-11-12T11:36:39;17.00;;;9.40;;
13834;SDS011;6988;52.614;13.500;2022-11-12T11:42:10;18.10;;;9.63;;
13834;SDS011;6988;52.614;13.500;2022-11-12T11:47:44;18.93;;;9.40;;
13834;SDS011;6988;52.614;13.500;2022-11-12T11:53:10;13.57;;;8.60;;
13834;SDS011;6988;52.614;13.500;2022-11-12T11:58:52;13.53;;;7.73;;
13834;SDS011;6988;52.614;13.500;2022-11-12T12:04:24;13.87;;;7.53;;
13834;SDS011;6988;52.614;13.500;2022-11-12T12:10:04;15.57;;;7.27;;
13834;SDS011;6988;52.614;13.500;2022-11-12T12:15:39;10.50;;;4.90;;
13834;SDS011;6988;52.614;13.500;2022-11-12T12:21:02;10.77;;;5.83;;
13834;SDS011;6988;52.614;13.500;2022-11-12T12:26:22;11.63;;;5.33;;
13834;SDS011;6988;52.614;13.500;2022-11-12T12:31:49;12.23;;;4.97;;
13834;SDS011;6988;52.614;13.500;2022-11-12T12:37:06;9.33;;;5.47;;
13834;SDS011;6988;52.614;13.500;2022-11-12T12:42:31;10.67;;;5.47;;
13834;SDS011;6988;52.614;13.500;2022-11-12T12:47:51;12.63;;;5.60;;
13834;SDS011;6988;52.614;13.500;2022-11-12T12:53:05;14.87;;;6.23;;
13834;SDS011;6988;52.614;13.500;2022-11-12T12:58:27;15.20;;;7.47;;
13834;SDS011;6988;52.614;13.500;2022-11-12T13:09:19;12.23;;;6.07;;
13834;SDS011;6988;52.614;13.500;2022-11-12T13:14:43;9.37;;;5.20;;
13834;SDS011;6988;52.614;13.500;2022-11-12T13:25:49;7.80;;;5.10;;
13834;SDS011;6988;52.614;13.500;2022-11-12T13:31:00;11.43;;;5.40;;
13834;SDS011;6988;52.614;13.500;2022-11-12T13:36:23;9.97;;;5.33;;
13834;SDS011;6988;52.614;13.500;2022-11-12T13:41:37;8.70;;;4.67;;
13834;SDS011;6988;52.614;13.500;2022-11-12T13:47:05;9.90;;;4.37;;
13834;SDS011;6988;52.614;13.500;2022-11-12T13:52:25;12.57;;;4.83;;
13834;SDS011;6988;52.614;13.500;2022-11-12T13:57:37;10.20;;;4.87;;
13834;SDS011;6988;52.614;13.500;2022-11-12T14:02:48;8.07;;;4.70;;
13834;SDS011;6988;52.614;13.500;2022-11-12T14:08:21;9.57;;;4.80;;
13834;SDS011;6988;52.614;13.500;2022-11-12T14:13:51;12.23;;;5.67;;
13834;SDS011;6988;52.614;13.500;2022-11-12T14:19:28;12.50;;;5.07;;
13834;SDS011;6988;52.614;13.500;2022-11-12T14:25:17;9.77;;;4.63;;
13834;SDS011;6988;52.614;13.500;2022-11-12T14:30:31;8.87;;;4.50;;
13834;SDS011;6988;52.614;13.500;2022-11-12T14:35:42;10.90;;;4.93;;
13834;SDS011;6988;52.614;13.500;2022-11-12T14:40:54;8.57;;;4.93;;
13834;SDS011;6988;52.614;13.500;2022-11-12T14:46:18;9.97;;;4.67;;
13834;SDS011;6988;52.614;13.500;2022-11-12T14:51:35;8.70;;;4.47;;
13834;SDS011;6988;52.614;13.500;2022-11-12T14:56:58;7.87;;;4.13;;
13834;SDS011;6988;52.614;13.500;2022-11-12T15:02:12;7.70;;;3.77;;
13834;SDS011;6988;52.614;13.500;2022-11-12T15:07:29;6.50;;;3.73;;
13834;SDS011;6988;52.614;13.500;2022-11-12T15:12:43;8.23;;;4.50;;
13834;SDS011;6988;52.614;13.500;2022-11-12T15:17:58;7.93;;;3.83;;
13834;SDS011;6988;52.614;13.500;2022-11-12T15:23:14;7.73;;;4.17;;
13834;SDS011;6988;52.614;13.500;2022-11-12T15:28:28;10.83;;;4.90;;
13834;SDS011;6988;52.614;13.500;2022-11-12T15:33:38;8.07;;;4.67;;
13834;SDS011;6988;52.614;13.500;2022-11-12T15:38:49;7.20;;;4.83;;
13834;SDS011;6988;52.614;13.500;2022-11-12T15:44:04;8.97;;;5.63;;
13834;SDS011;6988;52.614;13.500;2022-11-12T15:49:17;10.83;;;5.50;;
13834;SDS011;6988;52.614;13.500;2022-11-12T15:54:27;11.03;;;6.40;;
13834;SDS011;6988;52.614;13.500;2022-11-12T15:59:39;11.30;;;6.17;;
13834;SDS011;6988;52.614;13.500;2022-11-12T16:04:50;10.63;;;6.43;;
13834;SDS011;6988;52.614;13.500;2022-11-12T16:10:01;9.37;;;5.90;;
13834;SDS011;6988;52.614;13.500;2022-11-12T16:15:13;10.90;;;6.43;;
13834;SDS011;6988;52.614;13.500;2022-11-12T16:20:27;9.40;;;6.53;;
13834;SDS011;6988;52.614;13.500;2022-11-12T16:25:40;8.53;;;5.70;;
13834;SDS011;6988;52.614;13.500;2022-11-12T16:30:54;9.83;;;6.87;;
13834;SDS011;6988;52.614;13.500;2022-11-12T16:36:10;10.10;;;6.40;;
13834;SDS011;6988;52.614;13.500;2022-11-12T16:41:23;9.77;;;6.97;;
13834;SDS011;6988;52.614;13.500;2022-11-12T16:46:35;11.70;;;7.73;;
13834;SDS011;6988;52.614;13.500;2022-11-12T16:51:48;16.40;;;8.80;;
13834;SDS011;6988;52.614;13.500;2022-11-12T16:56:58;13.20;;;9.80;;
13834;SDS011;6988;52.614;13.500;2022-11-12T17:02:12;14.67;;;11.03;;
13834;SDS011;6988;52.614;13.500;2022-11-12T17:07:24;15.53;;;10.90;;
13834;SDS011;6988;52.614;13.500;2022-11-12T17:12:34;16.83;;;10.50;;
13834;SDS011;6988;52.614;13.500;2022-11-12T17:17:46;14.40;;;9.70;;
13834;SDS011;6988;52.614;13.500;2022-11-12T17:29:34;13.87;;;9.27;;
13834;SDS011;6988;52.614;13.500;2022-11-12T17:47:49;14.60;;;9.17;;
13834;SDS011;6988;52.614;13.500;2022-11-12T17:59:32;15.13;;;10.70;;
13834;SDS011;6988;52.614;13.500;2022-11-12T18:04:44;15.43;;;10.47;;
13834;SDS011;6988;52.614;13.500;2022-11-12T18:35:48;16.97;;;12.03;;
13834;SDS011;6988;52.614;13.500;2022-11-12T18:47:40;14.60;;;11.93;;
13834;SDS011;6988;52.614;13.500;2022-11-12T18:52:52;17.40;;;11.80;;
13834;SDS011;6988;52.614;13.500;2022-11-12T18:58:02;15.13;;;12.70;;
13834;SDS011;6988;52.614;13.500;2022-11-12T19:03:13;14.97;;;12.23;;
13834;SDS011;6988;52.614;13.500;2022-11-12T19:08:25;17.23;;;12.93;;
13834;SDS011;6988;52.614;13.500;2022-11-12T19:13:36;24.10;;;17.90;;
13834;SDS011;6988;52.614;13.500;2022-11-12T19:18:47;21.53;;;15.57;;
13834;SDS011;6988;52.614;13.500;2022-11-12T19:24:00;18.73;;;14.63;;
13834;SDS011;6988;52.614;13.500;2022-11-12T19:29:11;21.60;;;15.77;;
13834;SDS011;6988;52.614;13.500;2022-11-12T19:34:21;19.77;;;15.47;;
13834;SDS011;6988;52.614;13.500;2022-11-12T19:39:33;19.67;;;16.23;;
13834;SDS011;6988;52.614;13.500;2022-11-12T19:44:44;22.70;;;17.97;;
13834;SDS011;6988;52.614;13.500;2022-11-12T19:49:54;28.17;;;19.67;;
13834;SDS011;6988;52.614;13.500;2022-11-12T19:55:06;26.10;;;19.67;;
13834;SDS011;6988;52.614;13.500;2022-11-12T20:00:18;33.23;;;25.07;;
13834;SDS011;6988;52.614;13.500;2022-11-12T20:05:28;25.07;;;20.17;;
13834;SDS011;6988;52.614;13.500;2022-11-12T20:10:40;30.87;;;22.60;;
13834;SDS011;6988;52.614;13.500;2022-11-12T20:15:50;31.00;;;23.27;;
13834;SDS011;6988;52.614;13.500;2022-11-12T20:21:02;33.47;;;23.87;;
13834;SDS011;6988;52.614;13.500;2022-11-12T20:26:14;37.17;;;25.40;;
13834;SDS011;6988;52.614;13.500;2022-11-12T20:31:25;36.07;;;25.50;;
13834;SDS011;6988;52.614;13.500;2022-11-12T20:36:35;36.57;;;26.30;;
13834;SDS011;6988;52.614;13.500;2022-11-12T20:41:47;35.80;;;25.00;;
13834;SDS011;6988;52.614;13.500;2022-11-12T20:46:58;34.40;;;24.77;;
13834;SDS011;6988;52.614;13.500;2022-11-12T20:52:08;33.97;;;24.10;;
13834;SDS011;6988;52.614;13.500;2022-11-12T20:57:20;42.87;;;26.30;;
13834;SDS011;6988;52.614;13.500;2022-11-12T21:02:31;38.83;;;24.83;;
13834;SDS011;6988;52.614;13.500;2022-11-12T21:07:41;35.33;;;25.40;;
13834;SDS011;6988;52.614;13.500;2022-11-12T21:12:53;37.20;;;25.73;;
13834;SDS011;6988;52.614;13.500;2022-11-12T21:18:04;39.87;;;26.73;;
13834;SDS011;6988;52.614;13.500;2022-11-12T21:23:15;36.93;;;25.70;;
13834;SDS011;6988;52.614;13.500;2022-11-12T21:28:26;40.37;;;26.30;;
13834;SDS011;6988;52.614;13.500;2022-11-12T21:33:37;36.70;;;26.57;;
13834;SDS011;6988;52.614;13.500;2022-11-12T21:38:48;38.47;;;25.20;;
13834;SDS011;6988;52.614;13.500;2022-11-12T21:43:59;40.47;;;27.00;;
13834;SDS011;6988;52.614;13.500;2022-11-12T21:49:10;37.47;;;25.33;;
13834;SDS011;6988;52.614;13.500;2022-11-12T21:54:20;36.60;;;24.77;;
13834;SDS011;6988;52.614;13.500;2022-11-12T21:59:32;35.00;;;24.80;;
13834;SDS011;6988;52.614;13.500;2022-11-12T22:04:43;36.23;;;25.43;;
13834;SDS011;6988;52.614;13.500;2022-11-12T22:09:53;37.20;;;25.23;;
13834;SDS011;6988;52.614;13.500;2022-11-12T22:15:05;37.83;;;25.87;;
13834;SDS011;6988;52.614;13.500;2022-11-12T22:20:17;37.53;;;26.37;;
13834;SDS011;6988;52.614;13.500;2022-11-12T22:25:27;37.23;;;26.17;;
13834;SDS011;6988;52.614;13.500;2022-11-12T22:30:39;32.80;;;24.67;;
13834;SDS011;6988;52.614;13.500;2022-11-12T22:35:49;36.10;;;25.00;;
13834;SDS011;6988;52.614;13.500;2022-11-12T22:41:00;35.33;;;24.43;;
13834;SDS011;6988;52.614;13.500;2022-11-12T22:46:15;38.17;;;26.50;;
13834;SDS011;6988;52.614;13.500;2022-11-12T23:05:17;38.13;;;26.83;;
13834;SDS011;6988;52.614;13.500;2022-11-12T23:10:28;40.63;;;27.97;;
13834;SDS011;6988;52.614;13.500;2022-11-12T23:15:40;42.20;;;27.43;;
13834;SDS011;6988;52.614;13.500;2022-11-12T23:20:52;37.87;;;26.93;;
13834;SDS011;6988;52.614;13.500;2022-11-12T23:26:03;40.03;;;26.87;;
13834;SDS011;6988;52.614;13.500;2022-11-12T23:31:17;38.23;;;26.60;;
13834;SDS011;6988;52.614;13.500;2022-11-12T23:36:32;36.67;;;25.90;;
13834;SDS011;6988;52.614;13.500;2022-11-12T23:41:42;38.43;;;27.07;;
13834;SDS011;6988;52.614;13.500;2022-11-12T23:46:52;36.43;;;26.20;;
13834;SDS011;6988;52.614;13.500;2022-11-12T23:52:03;33.77;;;25.03;;
13834;SDS011;6988;52.614;13.500;2022-11-12T23:57:14;35.57;;;25.27;;
